Time;durP1;ratioP1;P1;durP2;ratioP2;P2;SDS_P1;SDS_P2;PMS_P1;PMS_P2;Temp;Humidity;BMP_temperature;BMP_pressure;BME280_temperature;BME280_humidity;BME280_pressure;Samples;Min_cycle;Max_cycle;Signal;HPM_P1;HPM_P2
2023/10/21 00:01:42;;;;;;;21.00;13.27;;;;;;;-145.68;100.00;72136.84;10483742;28;20195;-74
2023/10/21 00:06:42;;;;;;;23.05;13.52;;;;;;;-145.68;100.00;72186.81;10484231;28;20229;-74
2023/10/21 00:11:43;;;;;;;28.27;14.90;;;;;;;-145.68;100.00;72212.78;10483677;28;20198;-75
2023/10/21 00:16:43;;;;;;;31.40;16.48;;;;;;;-145.68;100.00;72248.75;10483426;28;20671;-74
2023/10/21 00:21:43;;;;;;;33.08;19.30;;;;;;;-145.68;100.00;72252.75;10483132;28;20560;-75
2023/10/21 00:26:47;;;;;;;29.27;15.38;;;;;;;-145.68;100.00;72240.75;10483494;28;20187;-74
2023/10/21 00:31:47;;;;;;;39.42;21.45;;;;;;;-145.68;100.00;72250.75;10482993;28;20278;-74
2023/10/21 00:36:48;;;;;;;33.88;20.33;;;;;;;-145.68;100.00;72264.72;10482843;28;20231;-74
2023/10/21 00:41:48;;;;;;;30.40;19.02;;;;;;;-145.68;100.00;72270.72;10482734;28;20255;-74
2023/10/21 00:46:48;;;;;;;33.28;18.27;;;;;;;-145.68;100.00;72300.69;10482600;28;20195;-74
2023/10/21 00:51:49;;;;;;;36.10;20.45;;;;;;;-145.68;100.00;72320.69;10464198;28;20250;-74
2023/10/21 00:56:49;;;;;;;39.60;21.83;;;;;;;-145.68;100.00;72316.69;10481233;28;20224;-73
2023/10/21 01:01:50;;;;;;;39.42;22.50;;;;;;;-145.68;100.00;72320.69;10478003;28;20269;-73
2023/10/21 01:06:50;;;;;;;43.78;23.48;;;;;;;-145.68;100.00;72324.69;10480440;28;20196;-74
2023/10/21 01:11:52;;;;;;;37.10;22.08;;;;;;;-145.68;100.00;72350.66;10481375;28;20204;-73
2023/10/21 01:16:53;;;;;;;32.80;18.92;;;;;;;-145.68;100.00;72348.66;10480941;28;20227;-73
2023/10/21 01:21:53;;;;;;;42.08;22.00;;;;;;;-145.68;100.00;72384.63;10489933;28;20231;-74
2023/10/21 01:26:54;;;;;;;40.43;21.63;;;;;;;-145.68;100.00;72422.59;10479578;28;20199;-74
2023/10/21 01:31:54;;;;;;;36.30;21.93;;;;;;;-145.68;100.00;72450.56;10478469;28;20200;-73
2023/10/21 01:36:55;;;;;;;34.10;20.67;;;;;;;-145.68;100.00;72462.56;10480769;28;20666;-73
2023/10/21 01:41:55;;;;;;;40.63;21.50;;;;;;;-145.68;100.00;72482.53;10478720;28;20200;-73
2023/10/21 01:46:55;;;;;;;35.50;21.57;;;;;;;-145.68;100.00;72480.53;10480024;28;20666;-73
2023/10/21 01:51:56;;;;;;;33.83;20.93;;;;;;;-145.68;100.00;72458.56;10474269;28;20208;-73
2023/10/21 01:56:57;;;;;;;28.90;18.33;;;;;;;-145.68;100.00;72486.53;10479061;28;20346;-73
2023/10/21 02:01:57;;;;;;;28.03;18.97;;;;;;;-145.68;100.00;72496.53;10478261;28;20245;-73
2023/10/21 02:06:57;;;;;;;31.30;18.98;;;;;;;-145.68;100.00;72490.53;10477940;28;20199;-73
2023/10/21 02:11:58;;;;;;;30.02;18.52;;;;;;;-145.68;100.00;72498.53;10478756;28;20204;-74
2023/10/21 02:16:58;;;;;;;25.60;17.60;;;;;;;-145.68;100.00;72474.53;10479724;28;20699;-72
2023/10/21 02:21:59;;;;;;;25.53;16.80;;;;;;;-145.68;100.00;72482.53;10476940;28;20235;-74
2023/10/21 02:27:00;;;;;;;22.83;15.45;;;;;;;-145.68;100.00;72472.53;10476908;28;20270;-73
2023/10/21 02:32:01;;;;;;;22.10;15.38;;;;;;;-145.68;100.00;72462.56;10477864;28;20551;-73
2023/10/21 02:37:01;;;;;;;21.90;14.32;;;;;;;-145.68;100.00;72460.56;10477280;28;20225;-73
2023/10/21 02:42:02;;;;;;;17.58;12.55;;;;;;;-145.68;100.00;72492.53;10479728;28;20192;-74
2023/10/21 02:47:03;;;;;;;16.13;12.70;;;;;;;-145.68;100.00;72484.53;10485306;28;20252;-74
2023/10/21 02:52:04;;;;;;;14.50;10.73;;;;;;;-145.68;100.00;72482.53;10485919;28;20233;-74
2023/10/21 02:57:04;;;;;;;11.82;9.05;;;;;;;-145.68;100.00;72442.56;10486018;28;20225;-74
2023/10/21 03:02:05;;;;;;;10.63;8.00;;;;;;;-145.68;100.00;72406.59;10486847;28;20198;-73
2023/10/21 03:07:05;;;;;;;10.57;7.25;;;;;;;-145.68;100.00;72388.63;10486727;28;20702;-73
2023/10/21 03:12:07;;;;;;;10.40;6.38;;;;;;;-145.68;100.00;72346.66;10486261;28;20218;-73
2023/10/21 03:17:08;;;;;;;5.85;4.95;;;;;;;-145.68;100.00;72286.72;10486100;28;20604;-72
2023/10/21 03:22:08;;;;;;;4.68;3.95;;;;;;;-145.68;100.00;72250.75;10484434;28;20219;-73
2023/10/21 03:27:09;;;;;;;5.07;4.03;;;;;;;-145.68;100.00;72216.78;10484397;28;20234;-72
2023/10/21 03:32:12;;;;;;;3.42;2.90;;;;;;;-145.68;100.00;72186.81;10485522;28;20252;-72
2023/10/21 03:37:12;;;;;;;4.25;3.42;;;;;;;-145.68;100.00;72192.78;10479174;28;20593;-74
2023/10/21 03:42:13;;;;;;;4.97;3.42;;;;;;;-145.68;100.00;72182.81;10485272;28;20202;-72
2023/10/21 03:47:13;;;;;;;3.45;3.00;;;;;;;-145.68;100.00;72184.81;10483605;28;20183;-75
2023/10/21 03:52:14;;;;;;;3.72;2.78;;;;;;;-145.68;100.00;72198.78;10484522;28;20847;-73
2023/10/21 03:57:14;;;;;;;2.72;2.40;;;;;;;-145.68;100.00;72202.78;10484055;28;20606;-73
2023/10/21 04:02:15;;;;;;;2.25;2.05;;;;;;;-145.68;100.00;72196.78;10484863;28;20215;-72
2023/10/21 04:07:15;;;;;;;2.10;1.92;;;;;;;-145.68;100.00;72180.81;10490603;28;20251;-72
2023/10/21 04:12:16;;;;;;;5.70;2.45;;;;;;;-145.68;100.00;72176.81;10486624;28;20195;-75
2023/10/21 04:17:16;;;;;;;3.25;1.80;;;;;;;-145.68;100.00;72192.78;10481169;28;20222;-73
2023/10/21 04:22:16;;;;;;;7.35;1.52;;;;;;;-145.68;100.00;72188.81;10483017;28;20227;-73
2023/10/21 04:27:17;;;;;;;2.60;1.67;;;;;;;-145.68;100.00;72198.78;10483073;28;20191;-73
2023/10/21 04:32:17;;;;;;;3.58;1.42;;;;;;;-145.68;99.82;72180.81;10483102;28;20651;-73
2023/10/21 04:37:18;;;;;;;2.08;1.70;;;;;;;-145.68;98.13;72204.78;10482210;28;20563;-73
2023/10/21 04:42:18;;;;;;;2.45;1.35;;;;;;;-145.68;96.67;72188.81;10482952;28;20199;-73
2023/10/21 04:47:18;;;;;;;1.05;0.95;;;;;;;-145.68;93.52;72176.81;10482071;28;20266;-73
2023/10/21 04:52:19;;;;;;;1.20;1.00;;;;;;;-145.68;90.28;72158.84;10471106;28;20627;-73
2023/10/21 04:57:19;;;;;;;2.45;1.00;;;;;;;-145.68;91.75;72196.78;10470650;28;20675;-73
2023/10/21 05:02:20;;;;;;;1.05;1.02;;;;;;;-145.68;94.86;72242.75;10469552;28;20229;-73
2023/10/21 05:07:21;;;;;;;1.30;1.17;;;;;;;-145.68;100.00;72312.69;10434684;28;20190;-73
2023/10/21 05:12:21;;;;;;;2.83;0.82;;;;;;;-145.68;100.00;72396.63;10470431;28;20218;-73
2023/10/21 05:17:21;;;;;;;1.08;1.08;;;;;;;-145.68;100.00;72452.56;10470175;28;20627;-75
2023/10/21 05:22:22;;;;;;;3.75;1.15;;;;;;;-145.68;100.00;72480.53;10470032;28;20233;-75
2023/10/21 05:27:22;;;;;;;1.50;1.20;;;;;;;-145.68;100.00;72494.53;10468045;28;20195;-75
2023/10/21 05:32:23;;;;;;;1.40;1.10;;;;;;;-145.68;100.00;72452.56;10470297;28;20198;-75
2023/10/21 05:37:23;;;;;;;3.43;1.47;;;;;;;-145.68;100.00;72464.56;10469100;28;20287;-72
2023/10/21 05:42:24;;;;;;;2.50;1.30;;;;;;;-145.68;100.00;72474.53;10469449;28;20198;-72
2023/10/21 05:47:24;;;;;;;1.10;1.00;;;;;;;-145.68;100.00;72464.56;10468940;28;20273;-75
2023/10/21 05:52:24;;;;;;;1.10;1.00;;;;;;;-145.68;100.00;72452.56;10481056;28;20206;-74
2023/10/21 05:57:25;;;;;;;1.10;1.00;;;;;;;-145.68;100.00;72454.56;10468552;28;20223;-74
2023/10/21 06:02:26;;;;;;;0.90;0.90;;;;;;;-145.68;100.00;72410.59;10468610;28;20191;-74
2023/10/21 06:07:27;;;;;;;1.67;0.80;;;;;;;-145.68;100.00;72328.69;10469223;28;20244;-75
2023/10/21 06:12:28;;;;;;;0.85;0.85;;;;;;;-145.68;90.16;72224.78;10469529;28;20187;-75
2023/10/21 06:17:28;;;;;;;0.80;0.80;;;;;;;-145.68;85.28;72190.81;10467409;28;20226;-75
2023/10/21 06:22:29;;;;;;;5.93;3.78;;;;;;;-145.68;84.85;72212.78;10467991;28;20226;-75
2023/10/21 06:27:29;;;;;;;1.30;1.20;;;;;;;-145.68;78.51;72118.88;10467584;28;20280;-74
2023/10/21 06:32:30;;;;;;;3.55;2.58;;;;;;;-145.68;78.39;72160.81;10468602;28;20591;-72
2023/10/21 06:37:30;;;;;;;3.97;3.28;;;;;;;-145.68;78.07;72160.81;10466022;28;20989;-72
2023/10/21 06:42:31;;;;;;;1.58;1.48;;;;;;;-145.68;77.06;72130.84;10468090;28;20643;-74
2023/10/21 06:47:32;;;;;;;3.47;2.67;;;;;;;-145.68;75.78;72112.88;10467270;28;20219;-75
2023/10/21 06:52:33;;;;;;;13.88;8.18;;;;;;;-145.68;73.59;72084.91;10467672;28;20318;-75
2023/10/21 06:57:33;;;;;;;1.10;1.00;;;;;;;-145.68;71.61;72056.94;10467295;28;20225;-75
2023/10/21 07:02:34;;;;;;;0.88;0.88;;;;;;;-145.68;70.04;72054.94;10458694;28;20197;-75
2023/10/21 07:07:34;;;;;;;1.45;1.17;;;;;;;-145.68;69.31;72012.97;10463451;28;20187;-72
2023/10/21 07:12:34;;;;;;;1.10;1.10;;;;;;;-145.68;67.90;71993.00;10466061;28;20196;-72
2023/10/21 07:17:36;;;;;;;2.78;1.05;;;;;;;-145.68;65.74;71955.03;10465020;28;20237;-74
2023/10/21 07:22:37;;;;;;;1.17;0.63;;;;;;;-145.68;65.99;71957.03;10465997;28;20234;-75
2023/10/21 07:27:38;;;;;;;1.00;1.00;;;;;;;-145.68;63.78;71889.09;10458796;28;20188;-72
2023/10/21 07:32:38;;;;;;;0.75;0.68;;;;;;;-145.68;63.17;71873.09;10446358;28;20203;-72
2023/10/21 07:37:39;;;;;;;0.60;0.60;;;;;;;-145.68;61.49;71869.13;10446704;28;20273;-73
2023/10/21 07:42:39;;;;;;;0.90;0.60;;;;;;;-145.68;63.32;71921.06;10457099;28;20184;-73
2023/10/21 07:47:43;;;;;;;1.08;0.70;;;;;;;-145.68;63.33;71947.03;10466856;28;20948;-73
2023/10/21 07:52:44;;;;;;;1.45;1.35;;;;;;;-145.68;62.47;71921.06;10471689;28;20191;-73
2023/10/21 07:57:44;;;;;;;0.90;0.90;;;;;;;-145.68;62.06;71931.06;10473089;28;20250;-74
2023/10/21 08:02:45;;;;;;;1.23;0.70;;;;;;;-145.68;61.65;71881.09;10472923;28;20987;-73
2023/10/21 08:07:45;;;;;;;0.73;0.73;;;;;;;-145.68;60.88;71915.06;10469070;28;21562;-74
2023/10/21 08:12:45;;;;;;;0.80;0.80;;;;;;;-145.68;60.36;71897.09;10474267;28;20287;-74
2023/10/21 08:17:46;;;;;;;0.68;0.68;;;;;;;-145.68;60.66;71961.03;10474419;28;20215;-74
2023/10/21 08:22:46;;;;;;;1.23;0.70;;;;;;;-145.68;60.13;71947.03;10474318;28;20235;-74
2023/10/21 08:27:47;;;;;;;0.80;0.80;;;;;;;-145.68;60.24;71941.03;10473689;28;20203;-74
2023/10/21 08:32:48;;;;;;;2.05;0.77;;;;;;;-145.68;60.16;71941.03;10472912;28;20196;-73
2023/10/21 08:37:48;;;;;;;1.58;0.75;;;;;;;-145.68;59.86;71985.00;10473945;28;20223;-73
2023/10/21 08:42:49;;;;;;;5.03;0.75;;;;;;;-145.68;59.51;71941.03;10470904;28;20545;-73
2023/10/21 08:47:50;;;;;;;0.65;0.65;;;;;;;-145.68;59.09;71923.06;10468091;28;20204;-72
2023/10/21 08:52:54;;;;;;;0.60;0.60;;;;;;;-145.68;58.76;71945.03;10468587;28;20188;-72
2023/10/21 08:57:54;;;;;;;0.68;0.60;;;;;;;-145.68;59.96;71965.00;10465706;28;20212;-73
2023/10/21 09:02:55;;;;;;;0.93;0.65;;;;;;;-145.68;58.86;71977.00;10469474;28;20191;-73
2023/10/21 09:07:56;;;;;;;2.15;0.57;;;;;;;-145.68;58.82;71925.06;10468404;28;20199;-73
2023/10/21 09:12:56;;;;;;;0.50;0.50;;;;;;;-145.68;57.75;71877.09;10468916;28;20627;-73
2023/10/21 09:18:08;;;;;;;1.20;0.70;;;;;;;-145.68;57.38;71925.06;10468189;28;20281;-73
2023/10/21 09:23:08;;;;;;;0.50;0.50;;;;;;;-145.68;56.65;71821.16;10462469;28;20641;-73
2023/10/21 09:28:19;;;;;;;0.60;0.60;;;;;;;-145.68;57.33;71883.09;10467431;28;20202;-72
2023/10/21 09:33:20;;;;;;;0.52;0.52;;;;;;;-145.68;55.18;71827.16;10469319;28;20202;-73
2023/10/21 09:38:21;;;;;;;5.72;0.70;;;;;;;-145.68;56.42;71865.13;10469603;28;20298;-72
2023/10/21 09:43:22;;;;;;;0.40;0.40;;;;;;;-145.68;55.88;71891.09;10469704;28;20219;-72
2023/10/21 09:48:23;;;;;;;0.77;0.60;;;;;;;-145.68;55.76;71915.06;10468505;28;20298;-72
2023/10/21 09:53:31;;;;;;;2.38;0.45;;;;;;;-145.68;55.16;71917.06;10468184;28;20666;-73
2023/10/21 09:58:31;;;;;;;0.60;0.50;;;;;;;-145.68;54.84;71923.06;10467592;28;20419;-72
2023/10/21 10:03:34;;;;;;;0.80;0.60;;;;;;;-145.68;53.99;71813.16;10468828;28;20191;-72
2023/10/21 10:08:35;;;;;;;0.40;0.40;;;;;;;-145.68;53.48;71911.06;10468905;28;20792;-72
2023/10/21 10:13:38;;;;;;;1.38;0.60;;;;;;;-145.68;56.18;71949.03;10476214;28;20215;-73
2023/10/21 10:18:46;;;;;;;2.40;0.50;;;;;;;-145.68;53.79;71869.13;10469736;28;20238;-73
2023/10/21 10:23:58;;;;;;;0.50;0.50;;;;;;;-145.68;52.41;71849.13;10470429;28;20316;-73
2023/10/21 10:29:01;;;;;;;0.93;0.50;;;;;;;-145.68;52.08;71809.16;10476654;28;20195;-72
2023/10/21 10:34:07;;;;;;;0.50;0.50;;;;;;;-145.68;53.31;71899.09;10467587;28;20278;-73
2023/10/21 10:39:36;;;;;;;1.23;0.60;;;;;;;-145.68;53.02;71865.13;10468204;28;20584;-73
2023/10/21 10:44:37;;;;;;;0.50;0.50;;;;;;;-145.68;52.43;71939.03;10468083;28;20195;-73
2023/10/21 10:49:57;;;;;;;0.40;0.40;;;;;;;-145.68;53.96;71881.09;10468010;28;20230;-73
2023/10/21 10:54:58;;;;;;;1.88;0.50;;;;;;;-145.68;54.72;71996.97;10460302;28;20187;-73
2023/10/21 10:59:59;;;;;;;1.52;0.50;;;;;;;-145.68;55.19;71927.06;10468275;28;20238;-73
2023/10/21 11:04:59;;;;;;;1.00;0.50;;;;;;;-145.68;54.91;71991.00;10475112;28;20225;-73
2023/10/21 11:10:01;;;;;;;0.45;0.45;;;;;;;-145.68;54.41;71969.00;10475950;28;20305;-73
2023/10/21 11:15:06;;;;;;;1.25;0.70;;;;;;;-145.68;52.98;71805.19;10475373;28;20195;-73
2023/10/21 11:20:07;;;;;;;0.65;0.50;;;;;;;-145.68;54.31;71949.03;10475635;28;20241;-72
2023/10/21 11:25:08;;;;;;;0.55;0.55;;;;;;;-145.68;54.26;71899.09;10475069;28;20234;-73
2023/10/21 11:30:09;;;;;;;1.83;0.40;;;;;;;-145.68;54.83;71993.00;10474919;28;20687;-73
2023/10/21 11:35:09;;;;;;;0.40;0.40;;;;;;;-145.68;55.41;71945.03;10473551;28;20220;-73
2023/10/21 11:40:11;;;;;;;2.85;0.40;;;;;;;-145.68;54.34;72002.97;10474489;28;20196;-73
2023/10/21 11:45:12;;;;;;;0.45;0.45;;;;;;;-145.68;54.31;72000.97;10474866;28;20200;-73
2023/10/21 11:50:12;;;;;;;0.40;0.40;;;;;;;-145.68;54.37;71995.00;10473356;28;20301;-73
2023/10/21 12:11:19;;;;;;;0.88;0.80;;;;;;;-145.68;53.29;71897.09;10472535;28;20644;-73
2023/10/21 12:37:29;;;;;;;0.40;0.40;;;;;;;-145.68;51.36;71817.16;10471650;28;20223;-73
2023/10/21 12:42:35;;;;;;;1.17;0.50;;;;;;;-145.68;50.23;71819.16;10472417;28;20288;-73
2023/10/21 12:47:35;;;;;;;0.85;0.50;;;;;;;-145.68;50.84;71833.16;10471510;28;20219;-73
2023/10/21 12:52:36;;;;;;;1.40;1.30;;;;;;;-145.68;48.53;71837.16;10471569;28;20192;-73
2023/10/21 12:57:37;;;;;;;0.65;0.60;;;;;;;-145.68;49.94;71899.09;10470159;28;20211;-73
2023/10/21 13:02:40;;;;;;;0.63;0.50;;;;;;;-145.68;49.80;71929.06;10471422;28;20203;-73
2023/10/21 13:07:40;;;;;;;3.22;0.60;;;;;;;-145.68;52.80;72036.94;10470506;28;20183;-73
2023/10/21 13:12:41;;;;;;;1.65;1.50;;;;;;;-145.68;54.33;72078.91;10471781;28;20199;-74
2023/10/21 13:17:41;;;;;;;2.20;2.00;;;;;;;-145.68;53.56;71993.00;10470563;28;20826;-74
2023/10/21 13:22:45;;;;;;;2.25;1.42;;;;;;;-145.68;53.37;71995.00;10470276;28;20768;-73
2023/10/21 13:27:46;;;;;;;1.30;1.20;;;;;;;-145.68;54.45;72052.94;10469523;28;20244;-73
2023/10/21 13:32:47;;;;;;;0.55;0.55;;;;;;;-145.68;55.04;72076.91;10470255;28;20487;-73
2023/10/21 13:37:49;;;;;;;1.13;1.02;;;;;;;-145.68;53.46;71989.00;10467647;28;20284;-73
2023/10/21 13:42:51;;;;;;;1.38;1.23;;;;;;;-145.68;52.69;71919.06;10469804;28;20191;-73
2023/10/21 13:47:56;;;;;;;29.30;14.93;;;;;;;-145.68;53.31;71955.03;10451776;28;20242;-73
2023/10/21 13:53:08;;;;;;;7.00;3.95;;;;;;;-145.68;53.48;71897.09;10464508;28;20245;-73
2023/10/21 13:58:09;;;;;;;9.27;4.35;;;;;;;-145.68;53.94;71901.09;10469274;28;20298;-73
2023/10/21 14:03:12;;;;;;;1.05;0.80;;;;;;;-145.68;53.04;71897.09;10469406;28;20184;-73
2023/10/21 14:08:14;;;;;;;22.85;11.10;;;;;;;-145.68;55.03;71967.00;10468439;28;20192;-73
2023/10/21 14:13:21;;;;;;;5.35;2.25;;;;;;;-145.68;54.83;71913.06;10469519;28;20192;-73
2023/10/21 14:18:22;;;;;;;1.77;1.40;;;;;;;-145.68;56.30;71961.03;10467506;28;20218;-73
2023/10/21 14:23:24;;;;;;;1.70;1.58;;;;;;;-145.68;59.99;72042.94;10468557;28;20702;-73
2023/10/21 14:28:27;;;;;;;2.50;1.75;;;;;;;-145.68;59.19;72070.91;10469206;28;20187;-72
2023/10/21 14:33:29;;;;;;;4.70;3.63;;;;;;;-145.68;59.79;72174.81;10468506;28;20620;-73
2023/10/21 14:45:10;;;;;;;15.27;10.23;;;;;;;-145.68;59.36;72212.78;10446467;28;20188;-72
2023/10/21 14:50:12;;;;;;;4.20;2.60;;;;;;;-145.68;60.19;72264.72;10476324;28;20520;-75
2023/10/21 14:55:12;;;;;;;2.35;1.20;;;;;;;-145.68;60.46;72258.75;10475425;28;20191;-75
2023/10/21 15:00:21;;;;;;;10.30;7.50;;;;;;;-145.68;60.34;72236.75;10491376;28;20196;-75
2023/10/21 15:05:22;;;;;;;1.50;1.00;;;;;;;-145.68;60.71;72238.75;10478653;28;20218;-74
2023/10/21 15:10:22;;;;;;;1.00;0.85;;;;;;;-145.68;63.24;72278.72;10479888;28;20195;-75
2023/10/21 15:15:23;;;;;;;2.53;2.20;;;;;;;-145.68;65.13;72380.63;10478730;28;20207;-75
2023/10/21 15:20:23;;;;;;;1.58;1.13;;;;;;;-145.68;67.51;72420.59;10479072;28;20199;-75
2023/10/21 15:25:24;;;;;;;2.67;1.40;;;;;;;-145.68;70.90;72458.56;10480250;28;20195;-75
2023/10/21 15:30:24;;;;;;;3.85;2.28;;;;;;;-145.68;74.48;72500.53;10479419;28;20559;-75
2023/10/21 15:35:24;;;;;;;9.65;7.25;;;;;;;-145.68;75.07;72512.50;10478753;28;20193;-75
2023/10/21 15:40:27;;;;;;;1.13;1.02;;;;;;;-145.68;76.87;72546.47;10477909;28;20183;-75
2023/10/21 15:45:27;;;;;;;3.28;2.80;;;;;;;-145.68;78.75;72568.47;10475432;28;20180;-74
2023/10/21 15:50:27;;;;;;;1.27;1.20;;;;;;;-145.68;82.64;72614.44;10477227;28;20222;-75
2023/10/21 15:55:28;;;;;;;2.90;1.88;;;;;;;-145.68;86.71;72662.38;10477070;28;20750;-74
2023/10/21 16:00:28;;;;;;;14.48;10.98;;;;;;;-145.68;91.21;72704.34;10476807;28;20213;-74
2023/10/21 16:05:29;;;;;;;3.13;1.60;;;;;;;-145.68;97.06;72742.31;10476883;28;20202;-75
2023/10/21 16:10:29;;;;;;;137.88;95.38;;;;;;;-145.68;100.00;72774.31;10479725;28;20261;-74
2023/10/21 16:15:31;;;;;;;45.88;32.85;;;;;;;-145.68;100.00;72794.28;10477264;28;20218;-74
2023/10/21 16:20:35;;;;;;;24.48;17.98;;;;;;;-145.68;100.00;72782.28;10475118;28;20627;-74
2023/10/21 16:25:35;;;;;;;13.85;12.43;;;;;;;-145.68;100.00;72806.28;10476214;28;20266;-74
2023/10/21 16:30:35;;;;;;;9.30;6.00;;;;;;;-145.68;100.00;72832.25;10476980;28;20184;-74
2023/10/21 16:35:41;;;;;;;13.65;10.25;;;;;;;-145.68;100.00;72856.22;10475795;28;20226;-74
2023/10/21 16:40:41;;;;;;;11.45;6.15;;;;;;;-145.68;100.00;72876.22;10473591;28;20176;-74
2023/10/21 16:45:42;;;;;;;17.13;11.73;;;;;;;-145.68;100.00;72906.19;10475003;28;20191;-74
2023/10/21 16:50:43;;;;;;;9.73;6.18;;;;;;;-145.68;100.00;72920.19;10471400;28;20227;-74
2023/10/21 16:55:43;;;;;;;9.63;6.68;;;;;;;-145.68;100.00;72936.19;10474898;28;20225;-74
2023/10/21 17:00:43;;;;;;;5.80;3.20;;;;;;;-145.68;100.00;72942.16;10474551;28;20191;-74
2023/10/21 17:05:44;;;;;;;7.38;3.13;;;;;;;-145.68;100.00;72976.16;10474138;28;20201;-74
2023/10/21 17:10:44;;;;;;;3.38;2.33;;;;;;;-145.68;100.00;72984.13;10474374;28;20191;-74
2023/10/21 17:15:45;;;;;;;2.70;2.10;;;;;;;-145.68;100.00;72988.13;10473831;28;20289;-74
2023/10/21 17:20:45;;;;;;;5.13;2.20;;;;;;;-145.68;100.00;72980.13;10473920;28;20237;-74
2023/10/21 17:25:46;;;;;;;2.55;1.58;;;;;;;-145.68;100.00;72984.13;10474085;28;20184;-74
2023/10/21 17:30:48;;;;;;;7.22;4.78;;;;;;;-145.68;100.00;72972.16;10473448;28;20187;-74
2023/10/21 17:35:48;;;;;;;4.93;4.38;;;;;;;-145.68;100.00;72980.13;10469783;28;20352;-74
2023/10/21 17:40:49;;;;;;;5.03;3.30;;;;;;;-145.68;100.00;72974.16;10471593;28;20678;-74
2023/10/21 17:45:50;;;;;;;4.32;3.10;;;;;;;-145.68;100.00;72986.13;10473018;28;20726;-74
2023/10/21 17:50:51;;;;;;;6.35;4.07;;;;;;;-145.68;100.00;72992.13;10472733;28;20268;-73
2023/10/21 17:55:51;;;;;;;3.38;3.08;;;;;;;-145.68;100.00;73012.13;10472438;28;20219;-73
2023/10/21 18:00:51;;;;;;;3.58;3.22;;;;;;;-145.68;100.00;73034.09;10474280;28;20241;-73
2023/10/21 18:05:52;;;;;;;5.32;4.00;;;;;;;-145.68;100.00;73050.09;10472501;28;20192;-74
2023/10/21 18:10:53;;;;;;;6.72;3.22;;;;;;;-145.68;100.00;73038.09;10472025;28;20345;-73
2023/10/21 18:15:53;;;;;;;5.38;3.25;;;;;;;-145.68;100.00;73040.09;10471662;28;20687;-73
2023/10/21 18:20:53;;;;;;;5.82;3.63;;;;;;;-145.68;100.00;73052.09;10472116;28;20220;-73
2023/10/21 18:26:03;;;;;;;5.75;4.13;;;;;;;-145.68;100.00;73062.09;10470464;28;20191;-74
2023/10/21 18:31:06;;;;;;;8.38;3.10;;;;;;;-145.68;100.00;73050.09;10472100;28;20325;-74
2023/10/21 18:36:06;;;;;;;4.25;2.83;;;;;;;-145.68;100.00;73036.09;10473070;28;20212;-73
2023/10/21 18:41:07;;;;;;;5.78;2.15;;;;;;;-145.68;100.00;73028.09;10471795;28;20663;-74
2023/10/21 18:46:07;;;;;;;5.18;3.33;;;;;;;-145.68;100.00;73038.09;10472923;28;20199;-74
2023/10/21 18:51:08;;;;;;;4.57;2.05;;;;;;;-145.68;100.00;73028.09;10473037;28;20297;-73
2023/10/21 18:56:10;;;;;;;3.10;2.08;;;;;;;-145.68;100.00;73024.13;10472458;28;20760;-73
2023/10/21 19:01:10;;;;;;;2.88;2.22;;;;;;;-145.68;100.00;73028.09;10471976;28;20601;-74
2023/10/21 19:06:10;;;;;;;3.50;2.40;;;;;;;-145.68;100.00;73018.13;10470926;28;20188;-74
2023/10/21 19:11:14;;;;;;;9.55;3.75;;;;;;;-145.68;100.00;73018.13;10472250;28;20973;-73
2023/10/21 19:16:15;;;;;;;4.38;2.80;;;;;;;-145.68;100.00;73028.09;10469750;28;20208;-74
2023/10/21 19:21:16;;;;;;;2.80;2.13;;;;;;;-145.68;100.00;73032.09;10470511;28;20231;-73
2023/10/21 19:26:16;;;;;;;3.33;2.40;;;;;;;-145.68;100.00;73050.09;10477028;28;20198;-74
2023/10/21 19:31:17;;;;;;;4.72;2.47;;;;;;;-145.68;100.00;73032.09;10476819;28;20222;-74
2023/10/21 19:36:18;;;;;;;3.20;2.22;;;;;;;-145.68;100.00;73014.13;10478329;28;20211;-73
2023/10/21 19:41:18;;;;;;;2.30;2.00;;;;;;;-145.68;100.00;73002.13;10477918;28;20222;-74
2023/10/21 19:46:20;;;;;;;2.67;2.00;;;;;;;-145.68;100.00;72996.13;10477493;28;20183;-73
2023/10/21 19:51:21;;;;;;;4.43;2.60;;;;;;;-145.68;100.00;73008.13;10477556;28;20564;-73
2023/10/21 19:56:21;;;;;;;3.10;2.15;;;;;;;-145.68;100.00;73006.13;10473412;28;20227;-74
2023/10/21 20:01:23;;;;;;;5.43;3.47;;;;;;;-145.68;100.00;73000.13;10472776;28;20675;-74
2023/10/21 20:06:28;;;;;;;3.70;2.85;;;;;;;-145.68;100.00;73004.13;10479517;28;20191;-73
2023/10/21 20:11:28;;;;;;;3.70;2.72;;;;;;;-145.68;100.00;72980.13;10479890;28;20651;-74
2023/10/21 20:16:29;;;;;;;4.78;2.40;;;;;;;-145.68;100.00;73000.13;10469979;28;20223;-74
2023/10/21 20:21:30;;;;;;;3.80;2.78;;;;;;;-145.68;100.00;73004.13;10478503;28;20246;-74
2023/10/21 20:26:30;;;;;;;2.95;1.88;;;;;;;-145.68;100.00;72976.16;10481213;28;20191;-74
2023/10/21 20:31:31;;;;;;;2.65;1.40;;;;;;;-145.68;100.00;72968.16;10471831;28;20275;-74
2023/10/21 20:36:32;;;;;;;2.75;1.50;;;;;;;-145.68;100.00;72968.16;10473551;28;20215;-74
2023/10/21 20:41:33;;;;;;;2.78;1.23;;;;;;;-145.68;100.00;72958.16;10476084;28;20658;-73
2023/10/21 20:46:34;;;;;;;1.25;1.05;;;;;;;-145.68;100.00;72950.16;10475166;28;20179;-74
2023/10/21 20:51:34;;;;;;;2.00;1.10;;;;;;;-145.68;100.00;72964.16;10473912;28;20697;-74
2023/10/21 20:56:34;;;;;;;2.60;1.70;;;;;;;-145.68;100.00;72970.16;10474809;28;20244;-74
2023/10/21 21:01:35;;;;;;;1.27;1.15;;;;;;;-145.68;100.00;72960.16;10474744;28;20187;-74
2023/10/21 21:06:36;;;;;;;3.00;1.55;;;;;;;-145.68;100.00;72934.19;10473229;28;20175;-74
2023/10/21 21:11:36;;;;;;;1.45;1.35;;;;;;;-145.68;100.00;72954.16;10473953;28;20183;-74
2023/10/21 21:16:38;;;;;;;1.48;1.17;;;;;;;-145.68;100.00;72958.16;10472434;28;20211;-74
2023/10/21 21:21:39;;;;;;;2.45;1.23;;;;;;;-145.68;100.00;72922.19;10470362;28;20227;-74
2023/10/21 21:26:39;;;;;;;2.10;1.30;;;;;;;-145.68;100.00;72968.16;10473633;28;20191;-74
2023/10/21 21:31:40;;;;;;;1.88;1.30;;;;;;;-145.68;100.00;72966.16;10475893;28;20195;-74
2023/10/21 21:36:40;;;;;;;1.55;1.42;;;;;;;-145.68;100.00;72984.13;10466490;28;20222;-74
2023/10/21 21:41:42;;;;;;;2.67;1.30;;;;;;;-145.68;100.00;73012.13;10464164;28;20193;-75
2023/10/21 21:46:43;;;;;;;3.60;1.70;;;;;;;-145.68;100.00;73034.09;10471719;28;20187;-75
2023/10/21 21:51:43;;;;;;;3.92;1.40;;;;;;;-145.68;100.00;73050.09;10470858;28;20210;-74
2023/10/21 21:56:44;;;;;;;2.08;1.27;;;;;;;-145.68;100.00;73068.06;10469874;28;20335;-75
2023/10/21 22:01:47;;;;;;;1.67;1.20;;;;;;;-145.68;100.00;73058.09;10470084;28;20667;-76
2023/10/21 22:06:49;;;;;;;1.70;1.45;;;;;;;-145.68;100.00;73110.06;10469868;28;20680;-75
2023/10/21 22:11:49;;;;;;;3.22;1.90;;;;;;;-145.68;100.00;73116.03;10469554;28;20241;-75
2023/10/21 22:16:50;;;;;;;4.80;1.70;;;;;;;-145.68;100.00;73142.03;10469231;28;21028;-75
2023/10/21 22:21:50;;;;;;;7.88;2.42;;;;;;;-145.68;100.00;73166.00;10469353;28;20237;-76
2023/10/21 22:26:54;;;;;;;4.60;2.28;;;;;;;-145.68;100.00;73170.00;10469753;28;20204;-75
2023/10/21 22:31:55;;;;;;;7.40;2.28;;;;;;;-145.68;100.00;73166.00;10468885;28;20194;-75
2023/10/21 22:36:56;;;;;;;5.28;2.47;;;;;;;-145.68;100.00;73176.00;10469173;28;20222;-75
2023/10/21 22:41:56;;;;;;;3.45;2.15;;;;;;;-145.68;100.00;73180.00;10451406;28;20202;-75
2023/10/21 22:46:57;;;;;;;3.80;2.38;;;;;;;-145.68;100.00;73188.00;10468468;28;20188;-75
2023/10/21 22:51:57;;;;;;;4.43;1.83;;;;;;;-145.68;100.00;73198.00;10465021;28;20208;-75
2023/10/21 22:56:58;;;;;;;4.13;2.00;;;;;;;-145.68;100.00;73201.97;10469619;28;20562;-75
2023/10/21 23:01:59;;;;;;;4.75;2.47;;;;;;;-145.68;100.00;73215.97;10476649;28;20237;-75
2023/10/21 23:06:59;;;;;;;5.32;2.28;;;;;;;-145.68;100.00;73227.97;10475945;28;20275;-75
2023/10/21 23:12:01;;;;;;;4.65;1.88;;;;;;;-145.68;100.00;73251.94;10476639;28;20200;-76
2023/10/21 23:17:01;;;;;;;7.57;2.55;;;;;;;-145.68;100.00;73263.94;10475540;28;20589;-75